<?xml version="1.0" encoding="UTF-8" standalone="no" ?>
<gpx xmlns="http://www.topografix.com/GPX/1/1" xmlns:xsi="http://www.w3.org/2001/XMLSchema-instance" xsi:schemaLocation="http://www.topografix.com/GPX/1/1 http://www.topografix.com/GPX/1/1/gpx.xsd" version="1.1" creator="VisuGPX - https://www.visugpx.com">
  <metadata>
    <name>Transcaucasie: Géorgie + Arménie</name>
  </metadata>
  <trk>
    <name><![CDATA[Tour d'Europe: étape 482]]></name>
    <extensions>
      <line xmlns="http://www.topografix.com/GPX/gpx_style/0/2">
        <color>888800</color>
        <width>4</width>
      </line>
    </extensions>
    <trkseg>
      <trkpt lat="40.5616" lon="44.9939">
        <ele>1928.980858</ele>
        <time>2021-10-23T05:35:24.041Z</time>
      </trkpt>
      <trkpt lat="40.56179" lon="44.99354">
        <ele>1928.980858</ele>
        <time>2021-10-23T05:36:10.042Z</time>
      </trkpt>
      <trkpt lat="40.55984" lon="44.99197">
        <ele>1926.423011</ele>
        <time>2021-10-23T05:37:04.074Z</time>
      </trkpt>
      <trkpt lat="40.55817" lon="44.99032">
        <ele>1925.661991</ele>
        <time>2021-10-23T05:38:26.064Z</time>
      </trkpt>
      <trkpt lat="40.55654" lon="44.98835">
        <ele>1930.377641</ele>
        <time>2021-10-23T05:39:42.072Z</time>
      </trkpt>
      <trkpt lat="40.55494" lon="44.98624">
        <ele>1932.791081</ele>
        <time>2021-10-23T05:40:53.039Z</time>
      </trkpt>
      <trkpt lat="40.55344" lon="44.98426">
        <ele>1929.632801</ele>
        <time>2021-10-23T05:41:33.055Z</time>
      </trkpt>
      <trkpt lat="40.55167" lon="44.98191">
        <ele>1925.245561</ele>
        <time>2021-10-23T05:42:13.053Z</time>
      </trkpt>
      <trkpt lat="40.55045" lon="44.97965">
        <ele>1928.015633</ele>
        <time>2021-10-23T05:42:59.040Z</time>
      </trkpt>
      <trkpt lat="40.54994" lon="44.97699">
        <ele>1932.998285</ele>
        <time>2021-10-23T05:43:59.078Z</time>
      </trkpt>
      <trkpt lat="40.54971" lon="44.97424">
        <ele>1933.873967</ele>
        <time>2021-10-23T05:45:04.061Z</time>
      </trkpt>
      <trkpt lat="40.55058" lon="44.97165">
        <ele>1933.187828</ele>
        <time>2021-10-23T05:46:18.041Z</time>
      </trkpt>
      <trkpt lat="40.54901" lon="44.97093">
        <ele>1934.315904</ele>
        <time>2021-10-23T05:47:44.045Z</time>
      </trkpt>
      <trkpt lat="40.5487" lon="44.96824">
        <ele>1934.206717</ele>
        <time>2021-10-23T05:48:51.046Z</time>
      </trkpt>
      <trkpt lat="40.54841" lon="44.96557">
        <ele>1935.325155</ele>
        <time>2021-10-23T05:49:56.046Z</time>
      </trkpt>
      <trkpt lat="40.54808" lon="44.96279">
        <ele>1940.976843</ele>
        <time>2021-10-23T05:51:15.124Z</time>
      </trkpt>
      <trkpt lat="40.54844" lon="44.96047">
        <ele>1939.806158</ele>
        <time>2021-10-23T05:52:24.050Z</time>
      </trkpt>
      <trkpt lat="40.54811" lon="44.95762">
        <ele>1936.021591</ele>
        <time>2021-10-23T05:53:26.046Z</time>
      </trkpt>
      <trkpt lat="40.54782" lon="44.9546">
        <ele>1939.613415</ele>
        <time>2021-10-23T05:54:26.056Z</time>
      </trkpt>
      <trkpt lat="40.54828" lon="44.95161">
        <ele>1945.0874</ele>
        <time>2021-10-23T05:55:24.030Z</time>
      </trkpt>
      <trkpt lat="40.54904" lon="44.94853">
        <ele>1944.810557</ele>
        <time>2021-10-23T05:56:23.037Z</time>
      </trkpt>
      <trkpt lat="40.54854" lon="44.94566">
        <ele>1937.259197</ele>
        <time>2021-10-23T05:57:23.073Z</time>
      </trkpt>
      <trkpt lat="40.5478" lon="44.94275">
        <ele>1931.195884</ele>
        <time>2021-10-23T05:58:22.039Z</time>
      </trkpt>
      <trkpt lat="40.54724" lon="44.94006">
        <ele>1937.555386</ele>
        <time>2021-10-23T05:59:09.043Z</time>
      </trkpt>
      <trkpt lat="40.54755" lon="44.93791">
        <ele>1944.99785</ele>
        <time>2021-10-23T06:00:16.059Z</time>
      </trkpt>
      <trkpt lat="40.54644" lon="44.93552">
        <ele>1941.272641</ele>
        <time>2021-10-23T06:01:24.040Z</time>
      </trkpt>
      <trkpt lat="40.54542" lon="44.9329">
        <ele>1941.073527</ele>
        <time>2021-10-23T06:02:16.041Z</time>
      </trkpt>
      <trkpt lat="40.54399" lon="44.93104">
        <ele>1942.617129</ele>
        <time>2021-10-23T06:03:22.033Z</time>
      </trkpt>
      <trkpt lat="40.54331" lon="44.92854">
        <ele>1945.807257</ele>
        <time>2021-10-23T06:04:29.045Z</time>
      </trkpt>
      <trkpt lat="40.54267" lon="44.92585">
        <ele>1947.137612</ele>
        <time>2021-10-23T06:05:21.042Z</time>
      </trkpt>
      <trkpt lat="40.54202" lon="44.92286">
        <ele>1947.24978</ele>
        <time>2021-10-23T06:06:21.026Z</time>
      </trkpt>
      <trkpt lat="40.54138" lon="44.91993">
        <ele>1946.260916</ele>
        <time>2021-10-23T06:07:07.050Z</time>
      </trkpt>
      <trkpt lat="40.54078" lon="44.91741">
        <ele>1945.20096</ele>
        <time>2021-10-23T06:07:49.043Z</time>
      </trkpt>
      <trkpt lat="40.54021" lon="44.9148">
        <ele>1945.028223</ele>
        <time>2021-10-23T06:08:44.079Z</time>
      </trkpt>
      <trkpt lat="40.54032" lon="44.91183">
        <ele>1950.563739</ele>
        <time>2021-10-23T06:09:44.054Z</time>
      </trkpt>
      <trkpt lat="40.54058" lon="44.90886">
        <ele>1950.100611</ele>
        <time>2021-10-23T06:10:33.040Z</time>
      </trkpt>
      <trkpt lat="40.54038" lon="44.90615">
        <ele>1948.843431</ele>
        <time>2021-10-23T06:11:26.046Z</time>
      </trkpt>
      <trkpt lat="40.53879" lon="44.905">
        <ele>1948.254583</ele>
        <time>2021-10-23T06:13:14.028Z</time>
      </trkpt>
      <trkpt lat="40.53828" lon="44.90234">
        <ele>1945.117731</ele>
        <time>2021-10-23T06:14:37.048Z</time>
      </trkpt>
      <trkpt lat="40.53778" lon="44.89957">
        <ele>1950.077819</ele>
        <time>2021-10-23T06:15:40.050Z</time>
      </trkpt>
      <trkpt lat="40.53817" lon="44.89705">
        <ele>1957.200266</ele>
        <time>2021-10-23T06:17:05.065Z</time>
      </trkpt>
      <trkpt lat="40.53837" lon="44.89444">
        <ele>1958.14841</ele>
        <time>2021-10-23T06:18:24.056Z</time>
      </trkpt>
      <trkpt lat="40.53777" lon="44.89176">
        <ele>1956.205068</ele>
        <time>2021-10-23T06:19:19.052Z</time>
      </trkpt>
      <trkpt lat="40.53718" lon="44.88895">
        <ele>1953.632096</ele>
        <time>2021-10-23T06:19:59.037Z</time>
      </trkpt>
      <trkpt lat="40.53635" lon="44.88592">
        <ele>1941.184623</ele>
        <time>2021-10-23T06:20:41.051Z</time>
      </trkpt>
      <trkpt lat="40.535" lon="44.88348">
        <ele>1926.34894</ele>
        <time>2021-10-23T06:21:21.066Z</time>
      </trkpt>
      <trkpt lat="40.53388" lon="44.88185">
        <ele>1917.988446</ele>
        <time>2021-10-23T06:22:05.047Z</time>
      </trkpt>
      <trkpt lat="40.53313" lon="44.87952">
        <ele>1913.134737</ele>
        <time>2021-10-23T06:23:09.063Z</time>
      </trkpt>
      <trkpt lat="40.53279" lon="44.87645">
        <ele>1904.572589</ele>
        <time>2021-10-23T06:23:52.050Z</time>
      </trkpt>
      <trkpt lat="40.53251" lon="44.87374">
        <ele>1903.668195</ele>
        <time>2021-10-23T06:24:59.053Z</time>
      </trkpt>
      <trkpt lat="40.53228" lon="44.87113">
        <ele>1910.576342</ele>
        <time>2021-10-23T06:26:40.059Z</time>
      </trkpt>
      <trkpt lat="40.53159" lon="44.86822">
        <ele>1915.613781</ele>
        <time>2021-10-23T06:27:48.093Z</time>
      </trkpt>
      <trkpt lat="40.53085" lon="44.8653">
        <ele>1915.515967</ele>
        <time>2021-10-23T06:28:48.057Z</time>
      </trkpt>
      <trkpt lat="40.53021" lon="44.86274">
        <ele>1918.991751</ele>
        <time>2021-10-23T06:29:58.029Z</time>
      </trkpt>
      <trkpt lat="40.52955" lon="44.86013">
        <ele>1921.096542</ele>
        <time>2021-10-23T06:31:02.052Z</time>
      </trkpt>
      <trkpt lat="40.52888" lon="44.85738">
        <ele>1919.124258</ele>
        <time>2021-10-23T06:31:55.088Z</time>
      </trkpt>
      <trkpt lat="40.52827" lon="44.85461">
        <ele>1922.861922</ele>
        <time>2021-10-23T06:32:54.033Z</time>
      </trkpt>
      <trkpt lat="40.52746" lon="44.85183">
        <ele>1912.00694</ele>
        <time>2021-10-23T06:33:37.052Z</time>
      </trkpt>
      <trkpt lat="40.52666" lon="44.84925">
        <ele>1894.618894</ele>
        <time>2021-10-23T06:34:43.039Z</time>
      </trkpt>
      <trkpt lat="40.52572" lon="44.84669">
        <ele>1885.230219</ele>
        <time>2021-10-23T06:35:30.123Z</time>
      </trkpt>
      <trkpt lat="40.52484" lon="44.84396">
        <ele>1886.282448</ele>
        <time>2021-10-23T06:36:25.059Z</time>
      </trkpt>
      <trkpt lat="40.52401" lon="44.84119">
        <ele>1895.688778</ele>
        <time>2021-10-23T06:37:28.065Z</time>
      </trkpt>
      <trkpt lat="40.52328" lon="44.83871">
        <ele>1904.357731</ele>
        <time>2021-10-23T06:52:21.073Z</time>
      </trkpt>
      <trkpt lat="40.52252" lon="44.83603">
        <ele>1898.486779</ele>
        <time>2021-10-23T06:53:20.030Z</time>
      </trkpt>
      <trkpt lat="40.52164" lon="44.83312">
        <ele>1899.458223</ele>
        <time>2021-10-23T06:54:13.065Z</time>
      </trkpt>
      <trkpt lat="40.52084" lon="44.83054">
        <ele>1895.779754</ele>
        <time>2021-10-23T06:55:06.088Z</time>
      </trkpt>
      <trkpt lat="40.51995" lon="44.82788">
        <ele>1887.729617</ele>
        <time>2021-10-23T06:56:00.061Z</time>
      </trkpt>
      <trkpt lat="40.51902" lon="44.82516">
        <ele>1875.580648</ele>
        <time>2021-10-23T06:56:58.062Z</time>
      </trkpt>
      <trkpt lat="40.51763" lon="44.82486">
        <ele>1865.866695</ele>
        <time>2021-10-23T06:58:19.052Z</time>
      </trkpt>
      <trkpt lat="40.51658" lon="44.8235">
        <ele>1855.392814</ele>
        <time>2021-10-23T06:59:24.044Z</time>
      </trkpt>
      <trkpt lat="40.5175" lon="44.82334">
        <ele>1859.667539</ele>
        <time>2021-10-23T07:00:43.055Z</time>
      </trkpt>
      <trkpt lat="40.51632" lon="44.82098">
        <ele>1847.665103</ele>
        <time>2021-10-23T07:01:56.039Z</time>
      </trkpt>
      <trkpt lat="40.51574" lon="44.81845">
        <ele>1841.870535</ele>
        <time>2021-10-23T07:02:48.066Z</time>
      </trkpt>
      <trkpt lat="40.51459" lon="44.81685">
        <ele>1848.587532</ele>
        <time>2021-10-23T07:04:24.059Z</time>
      </trkpt>
      <trkpt lat="40.51583" lon="44.81459">
        <ele>1848.575887</ele>
        <time>2021-10-23T07:05:35.050Z</time>
      </trkpt>
      <trkpt lat="40.51512" lon="44.81172">
        <ele>1841.196712</ele>
        <time>2021-10-23T07:06:20.068Z</time>
      </trkpt>
      <trkpt lat="40.51482" lon="44.80894">
        <ele>1839.694963</ele>
        <time>2021-10-23T07:07:16.052Z</time>
      </trkpt>
      <trkpt lat="40.51521" lon="44.80594">
        <ele>1835.984552</ele>
        <time>2021-10-23T07:08:12.103Z</time>
      </trkpt>
      <trkpt lat="40.51487" lon="44.80302">
        <ele>1842.098476</ele>
        <time>2021-10-23T07:09:14.054Z</time>
      </trkpt>
      <trkpt lat="40.51386" lon="44.80074">
        <ele>1847.845828</ele>
        <time>2021-10-23T07:10:19.094Z</time>
      </trkpt>
      <trkpt lat="40.51237" lon="44.79888">
        <ele>1854.983676</ele>
        <time>2021-10-23T07:11:53.045Z</time>
      </trkpt>
      <trkpt lat="40.51095" lon="44.79702">
        <ele>1862.144183</ele>
        <time>2021-10-23T07:13:28.060Z</time>
      </trkpt>
      <trkpt lat="40.51017" lon="44.79442">
        <ele>1863.372294</ele>
        <time>2021-10-23T07:14:35.078Z</time>
      </trkpt>
      <trkpt lat="40.50949" lon="44.79155">
        <ele>1858.307382</ele>
        <time>2021-10-23T07:15:26.052Z</time>
      </trkpt>
      <trkpt lat="40.50837" lon="44.78818">
        <ele>1843.676873</ele>
        <time>2021-10-23T07:16:08.062Z</time>
      </trkpt>
      <trkpt lat="40.50731" lon="44.78484">
        <ele>1830.650888</ele>
        <time>2021-10-23T07:16:41.077Z</time>
      </trkpt>
      <trkpt lat="40.50637" lon="44.78181">
        <ele>1825.454663</ele>
        <time>2021-10-23T07:17:26.070Z</time>
      </trkpt>
      <trkpt lat="40.50539" lon="44.77925">
        <ele>1818.502245</ele>
        <time>2021-10-23T07:18:11.060Z</time>
      </trkpt>
      <trkpt lat="40.5038" lon="44.77657">
        <ele>1811.674167</ele>
        <time>2021-10-23T07:18:52.077Z</time>
      </trkpt>
      <trkpt lat="40.50181" lon="44.77641">
        <ele>1816.393671</ele>
        <time>2021-10-23T07:20:16.056Z</time>
      </trkpt>
      <trkpt lat="40.49955" lon="44.77669">
        <ele>1816.467549</ele>
        <time>2021-10-23T07:21:33.041Z</time>
      </trkpt>
      <trkpt lat="40.4976" lon="44.77601">
        <ele>1823.888611</ele>
        <time>2021-10-23T07:22:53.041Z</time>
      </trkpt>
      <trkpt lat="40.49576" lon="44.77494">
        <ele>1829.31496</ele>
        <time>2021-10-23T07:24:40.055Z</time>
      </trkpt>
      <trkpt lat="40.49366" lon="44.77428">
        <ele>1822.305823</ele>
        <time>2021-10-23T07:25:37.077Z</time>
      </trkpt>
      <trkpt lat="40.49155" lon="44.77357">
        <ele>1817.524505</ele>
        <time>2021-10-23T07:26:42.077Z</time>
      </trkpt>
      <trkpt lat="40.49026" lon="44.77176">
        <ele>1825.718889</ele>
        <time>2021-10-23T07:28:08.096Z</time>
      </trkpt>
      <trkpt lat="40.4896" lon="44.76923">
        <ele>1835.519104</ele>
        <time>2021-10-23T07:29:47.044Z</time>
      </trkpt>
      <trkpt lat="40.48897" lon="44.76654">
        <ele>1839.220168</ele>
        <time>2021-10-23T07:31:24.054Z</time>
      </trkpt>
      <trkpt lat="40.48827" lon="44.76375">
        <ele>1834.129704</ele>
        <time>2021-10-23T07:32:11.051Z</time>
      </trkpt>
      <trkpt lat="40.48732" lon="44.76133">
        <ele>1821.741573</ele>
        <time>2021-10-23T07:33:10.075Z</time>
      </trkpt>
      <trkpt lat="40.4863" lon="44.75901">
        <ele>1811.109647</ele>
        <time>2021-10-23T07:34:22.059Z</time>
      </trkpt>
      <trkpt lat="40.4852" lon="44.75664">
        <ele>1822.229026</ele>
        <time>2021-10-23T07:35:43.054Z</time>
      </trkpt>
      <trkpt lat="40.48406" lon="44.75429">
        <ele>1824.488675</ele>
        <time>2021-10-23T07:37:01.090Z</time>
      </trkpt>
      <trkpt lat="40.48254" lon="44.75199">
        <ele>1805.637993</ele>
        <time>2021-10-23T07:37:41.072Z</time>
      </trkpt>
      <trkpt lat="40.48087" lon="44.7496">
        <ele>1789.990614</ele>
        <time>2021-10-23T07:38:28.044Z</time>
      </trkpt>
      <trkpt lat="40.47973" lon="44.74715">
        <ele>1787.582776</ele>
        <time>2021-10-23T07:42:23.042Z</time>
      </trkpt>
      <trkpt lat="40.47806" lon="44.74486">
        <ele>1773.555559</ele>
        <time>2021-10-23T07:43:04.043Z</time>
      </trkpt>
      <trkpt lat="40.47614" lon="44.7427">
        <ele>1757.478021</ele>
        <time>2021-10-23T07:43:44.052Z</time>
      </trkpt>
      <trkpt lat="40.47425" lon="44.74053">
        <ele>1749.932216</ele>
        <time>2021-10-23T07:44:35.060Z</time>
      </trkpt>
      <trkpt lat="40.47259" lon="44.73863">
        <ele>1757.642506</ele>
        <time>2021-10-23T07:45:36.063Z</time>
      </trkpt>
      <trkpt lat="40.47094" lon="44.73676">
        <ele>1769.963281</ele>
        <time>2021-10-23T07:47:18.068Z</time>
      </trkpt>
      <trkpt lat="40.46943" lon="44.73498">
        <ele>1780.768853</ele>
        <time>2021-10-23T07:49:02.041Z</time>
      </trkpt>
      <trkpt lat="40.46771" lon="44.73344">
        <ele>1782.44287</ele>
        <time>2021-10-23T07:50:24.049Z</time>
      </trkpt>
      <trkpt lat="40.46596" lon="44.73207">
        <ele>1784.743148</ele>
        <time>2021-10-23T07:51:45.060Z</time>
      </trkpt>
      <trkpt lat="40.46418" lon="44.73243">
        <ele>1790.855929</ele>
        <time>2021-10-23T07:52:53.059Z</time>
      </trkpt>
      <trkpt lat="40.46297" lon="44.73145">
        <ele>1795.828067</ele>
        <time>2021-10-23T07:54:35.043Z</time>
      </trkpt>
      <trkpt lat="40.46203" lon="44.72905">
        <ele>1792.136989</ele>
        <time>2021-10-23T07:55:53.053Z</time>
      </trkpt>
      <trkpt lat="40.46004" lon="44.72752">
        <ele>1783.495034</ele>
        <time>2021-10-23T07:56:47.044Z</time>
      </trkpt>
      <trkpt lat="40.45799" lon="44.7259">
        <ele>1782.07184</ele>
        <time>2021-10-23T07:57:37.054Z</time>
      </trkpt>
      <trkpt lat="40.45631" lon="44.72456">
        <ele>1794.832726</ele>
        <time>2021-10-23T07:59:23.062Z</time>
      </trkpt>
      <trkpt lat="40.45461" lon="44.72323">
        <ele>1802.599242</ele>
        <time>2021-10-23T08:01:13.045Z</time>
      </trkpt>
      <trkpt lat="40.4528" lon="44.72182">
        <ele>1803.654406</ele>
        <time>2021-10-23T08:02:26.046Z</time>
      </trkpt>
      <trkpt lat="40.45092" lon="44.72036">
        <ele>1803.493708</ele>
        <time>2021-10-23T08:03:30.057Z</time>
      </trkpt>
      <trkpt lat="40.44897" lon="44.71885">
        <ele>1799.684513</ele>
        <time>2021-10-23T08:04:28.052Z</time>
      </trkpt>
      <trkpt lat="40.44696" lon="44.71733">
        <ele>1792.829361</ele>
        <time>2021-10-23T08:05:12.039Z</time>
      </trkpt>
      <trkpt lat="40.44533" lon="44.716">
        <ele>1804.295692</ele>
        <time>2021-10-23T08:07:23.048Z</time>
      </trkpt>
      <trkpt lat="40.44354" lon="44.71496">
        <ele>1817.007166</ele>
        <time>2021-10-23T08:09:36.048Z</time>
      </trkpt>
      <trkpt lat="40.44164" lon="44.7141">
        <ele>1823.042121</ele>
        <time>2021-10-23T08:10:54.061Z</time>
      </trkpt>
      <trkpt lat="40.43976" lon="44.7134">
        <ele>1829.268504</ele>
        <time>2021-10-23T08:12:43.048Z</time>
      </trkpt>
      <trkpt lat="40.4377" lon="44.71293">
        <ele>1831.351233</ele>
        <time>2021-10-23T08:13:47.041Z</time>
      </trkpt>
      <trkpt lat="40.43495" lon="44.71225">
        <ele>1823.271304</ele>
        <time>2021-10-23T08:14:32.046Z</time>
      </trkpt>
      <trkpt lat="40.43295" lon="44.71175">
        <ele>1823.30199</ele>
        <time>2021-10-23T08:15:40.056Z</time>
      </trkpt>
      <trkpt lat="40.43101" lon="44.71126">
        <ele>1828.163046</ele>
        <time>2021-10-23T08:16:56.059Z</time>
      </trkpt>
      <trkpt lat="40.42904" lon="44.71078">
        <ele>1830.833668</ele>
        <time>2021-10-23T08:18:26.041Z</time>
      </trkpt>
      <trkpt lat="40.42683" lon="44.71025">
        <ele>1828.934862</ele>
        <time>2021-10-23T08:19:18.071Z</time>
      </trkpt>
      <trkpt lat="40.42456" lon="44.70971">
        <ele>1827.137666</ele>
        <time>2021-10-23T08:20:13.049Z</time>
      </trkpt>
      <trkpt lat="40.42219" lon="44.7091">
        <ele>1816.655721</ele>
        <time>2021-10-23T08:20:53.055Z</time>
      </trkpt>
      <trkpt lat="40.41987" lon="44.70841">
        <ele>1811.462415</ele>
        <time>2021-10-23T08:21:37.060Z</time>
      </trkpt>
      <trkpt lat="40.41778" lon="44.70768">
        <ele>1812.968367</ele>
        <time>2021-10-23T08:22:42.059Z</time>
      </trkpt>
      <trkpt lat="40.41582" lon="44.70704">
        <ele>1819.100581</ele>
        <time>2021-10-23T08:24:15.061Z</time>
      </trkpt>
      <trkpt lat="40.41382" lon="44.70637">
        <ele>1820.584225</ele>
        <time>2021-10-23T08:25:38.070Z</time>
      </trkpt>
      <trkpt lat="40.41176" lon="44.70568">
        <ele>1823.470031</ele>
        <time>2021-10-23T08:26:50.061Z</time>
      </trkpt>
      <trkpt lat="40.40978" lon="44.70506">
        <ele>1830.222981</ele>
        <time>2021-10-23T08:28:20.062Z</time>
      </trkpt>
      <trkpt lat="40.40756" lon="44.70437">
        <ele>1832.572881</ele>
        <time>2021-10-23T08:29:37.076Z</time>
      </trkpt>
      <trkpt lat="40.40524" lon="44.70364">
        <ele>1825.684217</ele>
        <time>2021-10-23T08:30:17.061Z</time>
      </trkpt>
      <trkpt lat="40.4031" lon="44.70288">
        <ele>1824.147486</ele>
        <time>2021-10-23T08:31:09.063Z</time>
      </trkpt>
      <trkpt lat="40.40111" lon="44.70189">
        <ele>1828.789737</ele>
        <time>2021-10-23T08:32:28.079Z</time>
      </trkpt>
      <trkpt lat="40.40002" lon="44.69943">
        <ele>1835.115185</ele>
        <time>2021-10-23T08:33:15.050Z</time>
      </trkpt>
      <trkpt lat="40.39888" lon="44.6969">
        <ele>1830.232016</ele>
        <time>2021-10-23T08:34:07.085Z</time>
      </trkpt>
      <trkpt lat="40.39773" lon="44.69425">
        <ele>1819.055066</ele>
        <time>2021-10-23T08:34:47.059Z</time>
      </trkpt>
      <trkpt lat="40.3965" lon="44.69164">
        <ele>1813.695269</ele>
        <time>2021-10-23T08:35:42.053Z</time>
      </trkpt>
      <trkpt lat="40.39551" lon="44.68932">
        <ele>1817.471348</ele>
        <time>2021-10-23T08:36:56.049Z</time>
      </trkpt>
      <trkpt lat="40.39446" lon="44.68709">
        <ele>1819.028872</ele>
        <time>2021-10-23T08:37:56.052Z</time>
      </trkpt>
      <trkpt lat="40.39332" lon="44.685">
        <ele>1820.691225</ele>
        <time>2021-10-23T08:38:59.092Z</time>
      </trkpt>
      <trkpt lat="40.39215" lon="44.68293">
        <ele>1828.245356</ele>
        <time>2021-10-23T08:40:26.077Z</time>
      </trkpt>
      <trkpt lat="40.39175" lon="44.6806">
        <ele>1842.899099</ele>
        <time>2021-10-23T08:42:17.073Z</time>
      </trkpt>
      <trkpt lat="40.39149" lon="44.67817">
        <ele>1850.172555</ele>
        <time>2021-10-23T08:44:02.060Z</time>
      </trkpt>
      <trkpt lat="40.39243" lon="44.67638">
        <ele>1857.515825</ele>
        <time>2021-10-23T08:46:02.082Z</time>
      </trkpt>
      <trkpt lat="40.39064" lon="44.67664">
        <ele>1872.170866</ele>
        <time>2021-10-23T08:48:00.062Z</time>
      </trkpt>
      <trkpt lat="40.38919" lon="44.67505">
        <ele>1891.935977</ele>
        <time>2021-10-23T08:50:17.068Z</time>
      </trkpt>
      <trkpt lat="40.38792" lon="44.67294">
        <ele>1895.499721</ele>
        <time>2021-10-23T08:51:39.060Z</time>
      </trkpt>
      <trkpt lat="40.38661" lon="44.67074">
        <ele>1899.34879</ele>
        <time>2021-10-23T08:53:19.059Z</time>
      </trkpt>
      <trkpt lat="40.38523" lon="44.66874">
        <ele>1904.62238</ele>
        <time>2021-10-23T08:54:56.065Z</time>
      </trkpt>
      <trkpt lat="40.38376" lon="44.66664">
        <ele>1902.036412</ele>
        <time>2021-10-23T08:55:51.096Z</time>
      </trkpt>
      <trkpt lat="40.382" lon="44.66516">
        <ele>1894.92244</ele>
        <time>2021-10-23T08:56:33.057Z</time>
      </trkpt>
      <trkpt lat="40.37993" lon="44.66341">
        <ele>1887.165575</ele>
        <time>2021-10-23T08:57:13.063Z</time>
      </trkpt>
      <trkpt lat="40.3777" lon="44.66155">
        <ele>1882.915913</ele>
        <time>2021-10-23T08:57:53.055Z</time>
      </trkpt>
      <trkpt lat="40.37556" lon="44.65979">
        <ele>1874.124084</ele>
        <time>2021-10-23T08:58:34.063Z</time>
      </trkpt>
      <trkpt lat="40.37349" lon="44.6581">
        <ele>1868.692179</ele>
        <time>2021-10-23T08:59:14.068Z</time>
      </trkpt>
      <trkpt lat="40.37159" lon="44.65665">
        <ele>1863.171177</ele>
        <time>2021-10-23T09:00:05.051Z</time>
      </trkpt>
      <trkpt lat="40.36943" lon="44.65723">
        <ele>1852.818146</ele>
        <time>2021-10-23T09:14:25.052Z</time>
      </trkpt>
      <trkpt lat="40.36779" lon="44.6557">
        <ele>1861.108143</ele>
        <time>2021-10-23T09:15:54.063Z</time>
      </trkpt>
      <trkpt lat="40.36611" lon="44.6543">
        <ele>1862.501353</ele>
        <time>2021-10-23T09:17:06.051Z</time>
      </trkpt>
      <trkpt lat="40.36411" lon="44.65269">
        <ele>1859.779976</ele>
        <time>2021-10-23T09:17:55.060Z</time>
      </trkpt>
      <trkpt lat="40.36217" lon="44.65138">
        <ele>1857.46127</ele>
        <time>2021-10-23T09:18:55.063Z</time>
      </trkpt>
      <trkpt lat="40.35977" lon="44.65099">
        <ele>1844.492765</ele>
        <time>2021-10-23T09:19:39.043Z</time>
      </trkpt>
      <trkpt lat="40.35814" lon="44.64948">
        <ele>1830.128819</ele>
        <time>2021-10-23T09:20:22.067Z</time>
      </trkpt>
      <trkpt lat="40.3562" lon="44.648">
        <ele>1813.444589</ele>
        <time>2021-10-23T09:21:04.071Z</time>
      </trkpt>
      <trkpt lat="40.3549" lon="44.64596">
        <ele>1801.259199</ele>
        <time>2021-10-23T09:21:44.066Z</time>
      </trkpt>
      <trkpt lat="40.35326" lon="44.6447">
        <ele>1785.8561</ele>
        <time>2021-10-23T09:22:30.065Z</time>
      </trkpt>
      <trkpt lat="40.35112" lon="44.64548">
        <ele>1779.470373</ele>
        <time>2021-10-23T09:23:36.067Z</time>
      </trkpt>
      <trkpt lat="40.34917" lon="44.64684">
        <ele>1772.854879</ele>
        <time>2021-10-23T09:24:27.056Z</time>
      </trkpt>
      <trkpt lat="40.34735" lon="44.64841">
        <ele>1761.099629</ele>
        <time>2021-10-23T09:25:10.099Z</time>
      </trkpt>
      <trkpt lat="40.34548" lon="44.65006">
        <ele>1755.15335</ele>
        <time>2021-10-23T09:26:02.065Z</time>
      </trkpt>
      <trkpt lat="40.34353" lon="44.65171">
        <ele>1746.036598</ele>
        <time>2021-10-23T09:26:42.063Z</time>
      </trkpt>
      <trkpt lat="40.34176" lon="44.65419">
        <ele>1729.794555</ele>
        <time>2021-10-23T09:27:23.066Z</time>
      </trkpt>
      <trkpt lat="40.34025" lon="44.6561">
        <ele>1729.376792</ele>
        <time>2021-10-23T09:28:19.075Z</time>
      </trkpt>
      <trkpt lat="40.3387" lon="44.65617">
        <ele>1735.725906</ele>
        <time>2021-10-23T09:29:19.082Z</time>
      </trkpt>
      <trkpt lat="40.33652" lon="44.65557">
        <ele>1731.210639</ele>
        <time>2021-10-23T09:30:14.062Z</time>
      </trkpt>
      <trkpt lat="40.33442" lon="44.6555">
        <ele>1726.616849</ele>
        <time>2021-10-23T09:31:02.061Z</time>
      </trkpt>
      <trkpt lat="40.33207" lon="44.65638">
        <ele>1719.729753</ele>
        <time>2021-10-23T09:31:53.060Z</time>
      </trkpt>
      <trkpt lat="40.32957" lon="44.65674">
        <ele>1712.627309</ele>
        <time>2021-10-23T09:32:33.059Z</time>
      </trkpt>
      <trkpt lat="40.32769" lon="44.65818">
        <ele>1705.2634</ele>
        <time>2021-10-23T09:33:13.070Z</time>
      </trkpt>
      <trkpt lat="40.32539" lon="44.65864">
        <ele>1698.527506</ele>
        <time>2021-10-23T09:33:53.056Z</time>
      </trkpt>
      <trkpt lat="40.32506" lon="44.65594">
        <ele>1688.505222</ele>
        <time>2021-10-23T09:34:44.112Z</time>
      </trkpt>
      <trkpt lat="40.32316" lon="44.65624">
        <ele>1676.545944</ele>
        <time>2021-10-23T09:35:39.092Z</time>
      </trkpt>
      <trkpt lat="40.32127" lon="44.65688">
        <ele>1664.151016</ele>
        <time>2021-10-23T09:36:29.064Z</time>
      </trkpt>
      <trkpt lat="40.31991" lon="44.65831">
        <ele>1651.12127</ele>
        <time>2021-10-23T09:37:09.065Z</time>
      </trkpt>
      <trkpt lat="40.31848" lon="44.65759">
        <ele>1641.745983</ele>
        <time>2021-10-23T09:37:50.064Z</time>
      </trkpt>
      <trkpt lat="40.31741" lon="44.65512">
        <ele>1625.667879</ele>
        <time>2021-10-23T09:38:30.071Z</time>
      </trkpt>
      <trkpt lat="40.31646" lon="44.65261">
        <ele>1601.968082</ele>
        <time>2021-10-23T09:39:15.066Z</time>
      </trkpt>
      <trkpt lat="40.31665" lon="44.64955">
        <ele>1580.942277</ele>
        <time>2021-10-23T09:40:14.068Z</time>
      </trkpt>
      <trkpt lat="40.31757" lon="44.6473">
        <ele>1568.39945</ele>
        <time>2021-10-23T09:41:09.075Z</time>
      </trkpt>
      <trkpt lat="40.31622" lon="44.64596">
        <ele>1557.829464</ele>
        <time>2021-10-23T09:42:02.075Z</time>
      </trkpt>
      <trkpt lat="40.31396" lon="44.64537">
        <ele>1549.343844</ele>
        <time>2021-10-23T09:42:42.058Z</time>
      </trkpt>
      <trkpt lat="40.3114" lon="44.64419">
        <ele>1539.004133</ele>
        <time>2021-10-23T09:43:22.083Z</time>
      </trkpt>
      <trkpt lat="40.30933" lon="44.64281">
        <ele>1527.375261</ele>
        <time>2021-10-23T09:44:02.066Z</time>
      </trkpt>
      <trkpt lat="40.30695" lon="44.6412">
        <ele>1515.336499</ele>
        <time>2021-10-23T09:44:42.068Z</time>
      </trkpt>
      <trkpt lat="40.305" lon="44.63988">
        <ele>1507.393034</ele>
        <time>2021-10-23T09:45:25.062Z</time>
      </trkpt>
      <trkpt lat="40.30294" lon="44.63852">
        <ele>1499.462996</ele>
        <time>2021-10-23T09:46:23.052Z</time>
      </trkpt>
      <trkpt lat="40.30069" lon="44.63706">
        <ele>1494.686906</ele>
        <time>2021-10-23T09:47:06.080Z</time>
      </trkpt>
      <trkpt lat="40.29877" lon="44.63586">
        <ele>1485.801487</ele>
        <time>2021-10-23T09:47:49.062Z</time>
      </trkpt>
      <trkpt lat="40.29679" lon="44.63465">
        <ele>1474.653955</ele>
        <time>2021-10-23T09:48:31.066Z</time>
      </trkpt>
      <trkpt lat="40.29481" lon="44.63344">
        <ele>1471.166274</ele>
        <time>2021-10-23T09:49:18.088Z</time>
      </trkpt>
      <trkpt lat="40.29282" lon="44.63219">
        <ele>1466.710567</ele>
        <time>2021-10-23T09:50:01.063Z</time>
      </trkpt>
      <trkpt lat="40.29084" lon="44.63097">
        <ele>1461.832883</ele>
        <time>2021-10-23T09:50:41.073Z</time>
      </trkpt>
      <trkpt lat="40.2887" lon="44.62965">
        <ele>1455.086543</ele>
        <time>2021-10-23T09:51:29.051Z</time>
      </trkpt>
      <trkpt lat="40.28687" lon="44.62851">
        <ele>1447.849277</ele>
        <time>2021-10-23T09:52:11.075Z</time>
      </trkpt>
      <trkpt lat="40.2849" lon="44.62724">
        <ele>1435.844364</ele>
        <time>2021-10-23T09:53:02.076Z</time>
      </trkpt>
      <trkpt lat="40.28293" lon="44.62605">
        <ele>1428.706981</ele>
        <time>2021-10-23T09:53:46.071Z</time>
      </trkpt>
      <trkpt lat="40.28101" lon="44.62485">
        <ele>1423.292799</ele>
        <time>2021-10-23T09:54:37.113Z</time>
      </trkpt>
      <trkpt lat="40.27902" lon="44.62357">
        <ele>1421.272903</ele>
        <time>2021-10-23T09:55:17.074Z</time>
      </trkpt>
      <trkpt lat="40.27698" lon="44.62233">
        <ele>1420.986465</ele>
        <time>2021-10-23T09:56:10.071Z</time>
      </trkpt>
      <trkpt lat="40.27501" lon="44.62112">
        <ele>1415.521954</ele>
        <time>2021-10-23T09:56:55.091Z</time>
      </trkpt>
      <trkpt lat="40.27308" lon="44.61993">
        <ele>1414.191109</ele>
        <time>2021-10-23T09:57:54.067Z</time>
      </trkpt>
      <trkpt lat="40.27113" lon="44.61871">
        <ele>1416.613267</ele>
        <time>2021-10-23T09:59:01.065Z</time>
      </trkpt>
      <trkpt lat="40.26913" lon="44.61749">
        <ele>1419.431754</ele>
        <time>2021-10-23T10:00:00.066Z</time>
      </trkpt>
      <trkpt lat="40.26695" lon="44.61612">
        <ele>1417.064128</ele>
        <time>2021-10-23T10:00:47.102Z</time>
      </trkpt>
      <trkpt lat="40.26529" lon="44.61458">
        <ele>1419.093032</ele>
        <time>2021-10-23T10:02:02.073Z</time>
      </trkpt>
      <trkpt lat="40.26317" lon="44.61301">
        <ele>1413.009526</ele>
        <time>2021-10-23T10:02:54.100Z</time>
      </trkpt>
      <trkpt lat="40.26168" lon="44.61084">
        <ele>1408.434979</ele>
        <time>2021-10-23T10:03:36.085Z</time>
      </trkpt>
      <trkpt lat="40.26031" lon="44.60842">
        <ele>1417.370654</ele>
        <time>2021-10-23T10:04:30.073Z</time>
      </trkpt>
      <trkpt lat="40.25906" lon="44.60617">
        <ele>1423.545615</ele>
        <time>2021-10-23T10:05:32.119Z</time>
      </trkpt>
      <trkpt lat="40.25783" lon="44.60399">
        <ele>1425.799958</ele>
        <time>2021-10-23T10:06:47.074Z</time>
      </trkpt>
      <trkpt lat="40.25636" lon="44.6026">
        <ele>1427.583005</ele>
        <time>2021-10-23T10:07:51.086Z</time>
      </trkpt>
      <trkpt lat="40.25406" lon="44.60351">
        <ele>1416.663845</ele>
        <time>2021-10-23T10:08:34.067Z</time>
      </trkpt>
      <trkpt lat="40.25174" lon="44.6034">
        <ele>1397.233351</ele>
        <time>2021-10-23T10:09:41.068Z</time>
      </trkpt>
      <trkpt lat="40.24962" lon="44.60373">
        <ele>1385.410148</ele>
        <time>2021-10-23T10:10:41.073Z</time>
      </trkpt>
      <trkpt lat="40.24774" lon="44.60231">
        <ele>1382.302221</ele>
        <time>2021-10-23T10:11:38.069Z</time>
      </trkpt>
      <trkpt lat="40.24592" lon="44.60082">
        <ele>1380.734666</ele>
        <time>2021-10-23T10:12:39.069Z</time>
      </trkpt>
      <trkpt lat="40.24516" lon="44.59806">
        <ele>1379.901607</ele>
        <time>2021-10-23T10:16:42.062Z</time>
      </trkpt>
      <trkpt lat="40.24479" lon="44.59531">
        <ele>1378.580973</ele>
        <time>2021-10-23T10:17:41.073Z</time>
      </trkpt>
      <trkpt lat="40.24414" lon="44.59233">
        <ele>1362.831336</ele>
        <time>2021-10-23T10:18:28.056Z</time>
      </trkpt>
      <trkpt lat="40.24293" lon="44.58972">
        <ele>1357.690876</ele>
        <time>2021-10-23T10:19:17.068Z</time>
      </trkpt>
      <trkpt lat="40.24333" lon="44.58715">
        <ele>1367.344793</ele>
        <time>2021-10-23T10:20:45.062Z</time>
      </trkpt>
      <trkpt lat="40.24202" lon="44.58601">
        <ele>1371.78897</ele>
        <time>2021-10-23T10:22:06.065Z</time>
      </trkpt>
      <trkpt lat="40.23996" lon="44.58713">
        <ele>1368.212725</ele>
        <time>2021-10-23T10:22:56.063Z</time>
      </trkpt>
      <trkpt lat="40.23799" lon="44.58853">
        <ele>1357.43221</ele>
        <time>2021-10-23T10:26:19.080Z</time>
      </trkpt>
      <trkpt lat="40.23669" lon="44.58739">
        <ele>1345.159418</ele>
        <time>2021-10-23T10:26:59.088Z</time>
      </trkpt>
      <trkpt lat="40.23599" lon="44.58468">
        <ele>1344.269059</ele>
        <time>2021-10-23T10:28:16.069Z</time>
      </trkpt>
      <trkpt lat="40.23523" lon="44.58216">
        <ele>1349.84634</ele>
        <time>2021-10-23T10:29:29.073Z</time>
      </trkpt>
      <trkpt lat="40.23437" lon="44.5795">
        <ele>1349.748141</ele>
        <time>2021-10-23T10:30:17.106Z</time>
      </trkpt>
      <trkpt lat="40.23239" lon="44.5789">
        <ele>1344.755559</ele>
        <time>2021-10-23T10:30:59.056Z</time>
      </trkpt>
      <trkpt lat="40.2302" lon="44.57769">
        <ele>1329.441834</ele>
        <time>2021-10-23T10:31:47.087Z</time>
      </trkpt>
      <trkpt lat="40.22806" lon="44.5768">
        <ele>1323.469936</ele>
        <time>2021-10-23T10:32:41.073Z</time>
      </trkpt>
      <trkpt lat="40.22684" lon="44.57455">
        <ele>1319.676733</ele>
        <time>2021-10-23T10:34:27.076Z</time>
      </trkpt>
      <trkpt lat="40.22473" lon="44.57518">
        <ele>1327.59599</ele>
        <time>2021-10-23T10:35:16.071Z</time>
      </trkpt>
      <trkpt lat="40.22246" lon="44.57579">
        <ele>1331.188204</ele>
        <time>2021-10-23T10:36:14.079Z</time>
      </trkpt>
      <trkpt lat="40.22048" lon="44.57605">
        <ele>1322.852138</ele>
        <time>2021-10-23T10:37:09.069Z</time>
      </trkpt>
      <trkpt lat="40.22004" lon="44.57316">
        <ele>1309.296141</ele>
        <time>2021-10-23T10:37:51.086Z</time>
      </trkpt>
      <trkpt lat="40.21961" lon="44.57003">
        <ele>1303.377962</ele>
        <time>2021-10-23T10:38:31.077Z</time>
      </trkpt>
      <trkpt lat="40.21976" lon="44.56598">
        <ele>1286.730431</ele>
        <time>2021-10-23T10:39:11.132Z</time>
      </trkpt>
      <trkpt lat="40.21935" lon="44.56233">
        <ele>1273.041444</ele>
        <time>2021-10-23T10:39:52.077Z</time>
      </trkpt>
      <trkpt lat="40.21917" lon="44.55916">
        <ele>1268.523504</ele>
        <time>2021-10-23T10:41:57.075Z</time>
      </trkpt>
      <trkpt lat="40.21943" lon="44.55636">
        <ele>1272.290818</ele>
        <time>2021-10-23T10:42:45.080Z</time>
      </trkpt>
      <trkpt lat="40.21971" lon="44.55373">
        <ele>1282.393057</ele>
        <time>2021-10-23T10:44:00.078Z</time>
      </trkpt>
      <trkpt lat="40.2196" lon="44.55138">
        <ele>1297.107879</ele>
        <time>2021-10-23T10:47:10.076Z</time>
      </trkpt>
      <trkpt lat="40.21823" lon="44.54957">
        <ele>1305.721638</ele>
        <time>2021-10-23T10:48:32.063Z</time>
      </trkpt>
      <trkpt lat="40.21652" lon="44.54855">
        <ele>1313.284679</ele>
        <time>2021-10-23T10:50:23.058Z</time>
      </trkpt>
      <trkpt lat="40.21767" lon="44.54651">
        <ele>1322.399374</ele>
        <time>2021-10-23T10:52:20.082Z</time>
      </trkpt>
      <trkpt lat="40.21875" lon="44.54455">
        <ele>1325.326196</ele>
        <time>2021-10-23T10:53:25.068Z</time>
      </trkpt>
      <trkpt lat="40.21733" lon="44.54311">
        <ele>1313.289009</ele>
        <time>2021-10-23T10:54:19.094Z</time>
      </trkpt>
      <trkpt lat="40.21574" lon="44.54509">
        <ele>1308.010397</ele>
        <time>2021-10-23T10:55:12.091Z</time>
      </trkpt>
      <trkpt lat="40.21408" lon="44.54504">
        <ele>1311.399073</ele>
        <time>2021-10-23T10:56:39.086Z</time>
      </trkpt>
      <trkpt lat="40.21212" lon="44.5445">
        <ele>1312.880611</ele>
        <time>2021-10-23T10:57:23.086Z</time>
      </trkpt>
      <trkpt lat="40.21055" lon="44.54242">
        <ele>1307.520059</ele>
        <time>2021-10-23T10:58:15.084Z</time>
      </trkpt>
      <trkpt lat="40.20848" lon="44.54093">
        <ele>1299.491545</ele>
        <time>2021-10-23T10:59:05.096Z</time>
      </trkpt>
      <trkpt lat="40.20643" lon="44.53855">
        <ele>1280.912639</ele>
        <time>2021-10-23T10:59:47.090Z</time>
      </trkpt>
      <trkpt lat="40.20475" lon="44.536">
        <ele>1266.253998</ele>
        <time>2021-10-23T11:00:52.078Z</time>
      </trkpt>
      <trkpt lat="40.20296" lon="44.5338">
        <ele>1249.243896</ele>
        <time>2021-10-23T11:01:35.082Z</time>
      </trkpt>
      <trkpt lat="40.20096" lon="44.53141">
        <ele>1232.259788</ele>
        <time>2021-10-23T11:02:33.068Z</time>
      </trkpt>
      <trkpt lat="40.19922" lon="44.52939">
        <ele>1216.231803</ele>
        <time>2021-10-23T11:04:10.077Z</time>
      </trkpt>
      <trkpt lat="40.19733" lon="44.5272">
        <ele>1188.447796</ele>
        <time>2021-10-23T11:04:52.065Z</time>
      </trkpt>
      <trkpt lat="40.19725" lon="44.52486">
        <ele>1168.673151</ele>
        <time>2021-10-23T11:05:34.063Z</time>
      </trkpt>
      <trkpt lat="40.19832" lon="44.52204">
        <ele>1176.404916</ele>
        <time>2021-10-23T11:06:14.088Z</time>
      </trkpt>
      <trkpt lat="40.19887" lon="44.51957">
        <ele>1180.857243</ele>
        <time>2021-10-23T11:07:20.077Z</time>
      </trkpt>
      <trkpt lat="40.19719" lon="44.51771">
        <ele>1167.330917</ele>
        <time>2021-10-23T11:07:46.072Z</time>
      </trkpt>
      <trkpt lat="40.19529" lon="44.5162">
        <ele>1147.708676</ele>
        <time>2021-10-23T11:11:15.083Z</time>
      </trkpt>
      <trkpt lat="40.19393" lon="44.51814">
        <ele>1136.293628</ele>
        <time>2021-10-23T11:11:56.088Z</time>
      </trkpt>
      <trkpt lat="40.19308" lon="44.52188">
        <ele>1122.97195</ele>
        <time>2021-10-23T11:12:37.095Z</time>
      </trkpt>
      <trkpt lat="40.19361" lon="44.52574">
        <ele>1109.758078</ele>
        <time>2021-10-23T11:13:17.068Z</time>
      </trkpt>
      <trkpt lat="40.19281" lon="44.52598">
        <ele>1093.776863</ele>
        <time>2021-10-23T11:14:40.082Z</time>
      </trkpt>
      <trkpt lat="40.19204" lon="44.52547">
        <ele>1090.851321</ele>
        <time>2021-10-23T11:15:20.075Z</time>
      </trkpt>
      <trkpt lat="40.19016" lon="44.52328">
        <ele>1094.681943</ele>
        <time>2021-10-23T11:16:00.068Z</time>
      </trkpt>
      <trkpt lat="40.18831" lon="44.52131">
        <ele>1099.855729</ele>
        <time>2021-10-23T11:20:27.077Z</time>
      </trkpt>
      <trkpt lat="40.18657" lon="44.5191">
        <ele>1098.645107</ele>
        <time>2021-10-23T11:21:31.095Z</time>
      </trkpt>
      <trkpt lat="40.18431" lon="44.51678">
        <ele>1109.096687</ele>
        <time>2021-10-23T11:23:22.077Z</time>
      </trkpt>
      <trkpt lat="40.18437" lon="44.51461">
        <ele>1068.275362</ele>
        <time>2021-10-23T11:24:37.078Z</time>
      </trkpt>
      <trkpt lat="40.18352" lon="44.51244">
        <ele>1063.36789</ele>
        <time>2021-10-23T11:40:27.065Z</time>
      </trkpt>
      <trkpt lat="40.18398" lon="44.51236">
        <ele>1063.36789</ele>
        <time>2021-10-23T11:50:35.117Z</time>
      </trkpt>
    </trkseg>
  </trk>
</gpx>